Key Colony Beach, Florida
Current Conditions -  °F | °C
As of 6:53 PM on Saturday 25 Oct 2014 (Local Time) from KMTH Reporting Station
Clear Clear  
Wind Chill: 77°   Ceiling: Unl
Heat Index: 79°   Visibility: 10mi
Dew Point: 65°   Wind: 9mph
Humidity: 66%   Direction: 340°NNW
Pressure: 29.9"   Gusts: NA
Location:  24.72°N, 81.02°W
Report Text: KMTH 252253Z AUTO 34008KT 10SM CLR 25/18 A2990 RMK AO2 SLP124 T02500183 $
Loading
Personal Weather Stations






























Interactive Weather Map
Tropical Storm Tracking
New forecast layout! Learn more

10-Day Weather Forecast

Advertisements
Track Severe Weather on mobile